Time;durP1;ratioP1;P1;durP2;ratioP2;P2;SDS_P1;SDS_P2;PMS_P1;PMS_P2;Temp;Humidity;BMP_temperature;BMP_pressure;BME280_temperature;BME280_humidity;BME280_pressure;Samples;Min_cycle;Max_cycle;Signal;HPM_P1;HPM_P2
2022/04/28 00:00:42;;;;;;;13.50;8.68;;;;;;;;;;5021627;28;20113;-73
2022/04/28 00:03:08;;;;;;;16.38;10.05;;;;;;;;;;5025393;28;20025;-74
2022/04/28 00:05:35;;;;;;;16.98;9.05;;;;;;;;;;5020721;28;20557;-74
2022/04/28 00:08:00;;;;;;;14.73;9.10;;;;;;;;;;5024118;28;20025;-74
2022/04/28 00:10:25;;;;;;;14.80;8.65;;;;;;;;;;5022105;28;20520;-74
2022/04/28 00:12:50;;;;;;;12.90;9.57;;;;;;;;;;5025665;28;20040;-73
2022/04/28 00:15:16;;;;;;;18.00;9.38;;;;;;;;;;5021296;28;20085;-74
2022/04/28 00:17:41;;;;;;;15.18;9.52;;;;;;;;;;5006605;28;20527;-73
2022/04/28 00:20:10;;;;;;;15.52;9.48;;;;;;;;;;5022165;28;20068;-73
2022/04/28 00:22:35;;;;;;;13.40;9.35;;;;;;;;;;5023854;28;20025;-73
2022/04/28 00:25:00;;;;;;;16.50;9.13;;;;;;;;;;5023463;28;20412;-72
2022/04/28 00:27:26;;;;;;;17.02;9.73;;;;;;;;;;5021469;28;20480;-74
2022/04/28 00:29:51;;;;;;;16.75;9.10;;;;;;;;;;5021699;28;20387;-74
2022/04/28 00:32:16;;;;;;;15.98;9.52;;;;;;;;;;5023378;28;20029;-74
2022/04/28 00:34:42;;;;;;;18.17;10.18;;;;;;;;;;5021372;28;20026;-74
2022/04/28 00:37:09;;;;;;;16.10;10.90;;;;;;;;;;5025919;28;20025;-73
2022/04/28 00:39:35;;;;;;;18.45;10.68;;;;;;;;;;5004766;28;20060;-73
2022/04/28 00:42:01;;;;;;;21.08;9.30;;;;;;;;;;5004223;28;20025;-74
2022/04/28 00:44:26;;;;;;;15.60;9.98;;;;;;;;;;5018529;28;20392;-73
2022/04/28 00:46:51;;;;;;;18.67;10.07;;;;;;;;;;5022427;28;20091;-73
2022/04/28 00:52:01;;;;;;;14.82;9.73;;;;;;;;;;5023236;28;20025;-74
2022/04/28 00:54:28;;;;;;;13.90;9.57;;;;;;;;;;5003047;28;20244;-74
2022/04/28 00:56:55;;;;;;;17.08;10.15;;;;;;;;;;5021198;28;20021;-73
2022/04/28 00:59:21;;;;;;;14.90;9.23;;;;;;;;;;5017906;28;20017;-74
2022/04/28 01:01:46;;;;;;;15.68;9.48;;;;;;;;;;5021156;28;20017;-73
2022/04/28 01:04:12;;;;;;;14.98;9.27;;;;;;;;;;5020669;28;20043;-73
2022/04/28 01:06:40;;;;;;;14.73;9.57;;;;;;;;;;5020345;28;20053;-74
2022/04/28 01:09:05;;;;;;;14.48;9.60;;;;;;;;;;5022832;28;20017;-73
2022/04/28 01:11:31;;;;;;;15.07;9.23;;;;;;;;;;5019607;28;20510;-73
2022/04/28 01:13:56;;;;;;;15.00;9.73;;;;;;;;;;5003087;28;20037;-74
2022/04/28 01:16:22;;;;;;;13.98;9.57;;;;;;;;;;5024060;28;20022;-74
2022/04/28 01:18:47;;;;;;;15.27;9.90;;;;;;;;;;5022105;28;20145;-73
2022/04/28 01:21:13;;;;;;;23.48;10.00;;;;;;;;;;5019631;28;20028;-74
2022/04/28 01:23:39;;;;;;;16.50;9.63;;;;;;;;;;5020318;28;20048;-74
2022/04/28 01:26:04;;;;;;;16.88;9.73;;;;;;;;;;5021626;28;20013;-75
2022/04/28 01:28:31;;;;;;;16.17;9.88;;;;;;;;;;5022366;28;20569;-74
2022/04/28 01:30:56;;;;;;;14.73;9.90;;;;;;;;;;5020571;28;20433;-74
2022/04/28 01:33:21;;;;;;;21.38;10.10;;;;;;;;;;5021558;28;20049;-73
2022/04/28 01:35:46;;;;;;;15.23;9.63;;;;;;;;;;5019837;28;20026;-73
2022/04/28 01:38:12;;;;;;;19.20;10.25;;;;;;;;;;5025105;28;20013;-74
2022/04/28 01:40:37;;;;;;;18.08;9.80;;;;;;;;;;5018344;28;20045;-74
2022/04/28 01:43:02;;;;;;;13.93;8.93;;;;;;;;;;5021687;28;20108;-74
2022/04/28 01:45:28;;;;;;;13.77;9.55;;;;;;;;;;5015407;28;20448;-74
2022/04/28 01:47:53;;;;;;;13.73;9.07;;;;;;;;;;5022234;28;20017;-73
2022/04/28 01:50:19;;;;;;;16.65;10.02;;;;;;;;;;5017636;28;20117;-74
2022/04/28 01:55:31;;;;;;;13.80;9.05;;;;;;;;;;5019878;28;20878;-74
2022/04/28 01:57:56;;;;;;;15.43;9.30;;;;;;;;;;5022688;28;20014;-73
2022/04/28 02:00:22;;;;;;;15.00;9.65;;;;;;;;;;5017939;28;20463;-72
2022/04/28 02:02:47;;;;;;;17.10;10.02;;;;;;;;;;5020720;28;20112;-75
2022/04/28 02:05:13;;;;;;;14.57;8.70;;;;;;;;;;5018412;28;20112;-73
2022/04/28 02:07:38;;;;;;;13.02;9.15;;;;;;;;;;5021304;28;20317;-73
2022/04/28 02:10:04;;;;;;;15.43;9.55;;;;;;;;;;5019802;28;20025;-73
2022/04/28 02:12:30;;;;;;;17.63;9.18;;;;;;;;;;5018264;28;20037;-73
2022/04/28 02:14:55;;;;;;;13.75;9.43;;;;;;;;;;5018525;28;20025;-73
2022/04/28 02:17:23;;;;;;;16.70;9.10;;;;;;;;;;5022356;28;20053;-74
2022/04/28 02:19:48;;;;;;;15.27;9.30;;;;;;;;;;5021718;28;20490;-73
2022/04/28 02:22:13;;;;;;;15.60;9.57;;;;;;;;;;5025768;28;20037;-74
2022/04/28 02:24:38;;;;;;;16.38;8.82;;;;;;;;;;5024415;28;20193;-74
2022/04/28 02:27:04;;;;;;;14.38;9.45;;;;;;;;;;5021920;28;20099;-74
2022/04/28 02:29:30;;;;;;;11.95;8.95;;;;;;;;;;5022577;28;20033;-74
2022/04/28 02:31:55;;;;;;;16.02;8.73;;;;;;;;;;5024628;28;20013;-74
2022/04/28 02:34:21;;;;;;;15.95;9.13;;;;;;;;;;5024444;28;20060;-74
2022/04/28 02:36:46;;;;;;;19.00;9.32;;;;;;;;;;5005100;28;20092;-74
2022/04/28 02:39:17;;;;;;;15.85;9.02;;;;;;;;;;5026374;28;20029;-73
2022/04/28 02:41:42;;;;;;;18.88;10.02;;;;;;;;;;5020011;28;20095;-73
2022/04/28 02:44:07;;;;;;;14.00;9.38;;;;;;;;;;5023433;28;20511;-73
2022/04/28 02:46:33;;;;;;;16.75;8.90;;;;;;;;;;5007614;28;20041;-74
2022/04/28 02:48:59;;;;;;;14.38;8.73;;;;;;;;;;5023901;28;20028;-73
2022/04/28 02:51:24;;;;;;;12.38;9.18;;;;;;;;;;5004329;28;20051;-74
2022/04/28 02:53:50;;;;;;;13.75;8.88;;;;;;;;;;5009675;28;20056;-75
2022/04/28 02:56:16;;;;;;;15.43;9.05;;;;;;;;;;5027782;28;20029;-74
2022/04/28 02:58:43;;;;;;;13.85;8.45;;;;;;;;;;5026702;28;20447;-73
2022/04/28 03:01:08;;;;;;;13.32;8.60;;;;;;;;;;5024936;28;20037;-75
2022/04/28 03:03:34;;;;;;;18.40;9.05;;;;;;;;;;5023880;28;20455;-73
2022/04/28 03:11:28;;;;;;;15.65;9.48;;;;;;;;;;5023012;28;20427;-74
2022/04/28 03:13:54;;;;;;;13.50;8.93;;;;;;;;;;5022423;28;20025;-73
2022/04/28 03:16:20;;;;;;;13.32;8.82;;;;;;;;;;5026572;28;20509;-74
2022/04/28 03:18:46;;;;;;;12.43;8.77;;;;;;;;;;5022920;28;20053;-74
2022/04/28 03:21:12;;;;;;;14.25;9.10;;;;;;;;;;5023313;28;20037;-74
2022/04/28 03:23:37;;;;;;;14.88;9.10;;;;;;;;;;5023673;28;20459;-73
2022/04/28 03:26:03;;;;;;;13.82;9.18;;;;;;;;;;5021377;28;20123;-73
2022/04/28 03:28:29;;;;;;;17.45;9.23;;;;;;;;;;5022874;28;20036;-72
2022/04/28 03:30:55;;;;;;;13.98;8.90;;;;;;;;;;5020688;28;20056;-74
2022/04/28 03:33:20;;;;;;;18.92;9.75;;;;;;;;;;5023196;28;20467;-74
2022/04/28 03:35:46;;;;;;;15.23;9.93;;;;;;;;;;5025366;28;20744;-74
2022/04/28 03:38:14;;;;;;;14.85;9.35;;;;;;;;;;5008334;28;20030;-74
2022/04/28 03:40:40;;;;;;;17.45;9.25;;;;;;;;;;5021582;28;20488;-73
2022/04/28 03:43:05;;;;;;;13.27;9.40;;;;;;;;;;5022616;28;20064;-72
2022/04/28 03:45:31;;;;;;;16.08;9.70;;;;;;;;;;5019564;28;20029;-73
2022/04/28 03:47:57;;;;;;;14.40;9.52;;;;;;;;;;5023176;28;20052;-73
2022/04/28 03:50:22;;;;;;;16.67;10.13;;;;;;;;;;5019284;28;20037;-74
2022/04/28 03:52:47;;;;;;;10.63;9.43;;;;;;;;;;5020476;28;20456;-75
2022/04/28 03:55:14;;;;;;;14.02;9.27;;;;;;;;;;5005172;28;20029;-73
2022/04/28 03:57:41;;;;;;;16.20;9.68;;;;;;;;;;5006288;28;20056;-73
2022/04/28 04:00:06;;;;;;;15.90;9.40;;;;;;;;;;5022409;28;20049;-73
2022/04/28 04:02:32;;;;;;;14.93;10.57;;;;;;;;;;5021424;28;20402;-73
2022/04/28 04:04:58;;;;;;;15.73;9.90;;;;;;;;;;5005501;28;20438;-74
2022/04/28 04:07:28;;;;;;;16.85;9.85;;;;;;;;;;5023774;28;20021;-74
2022/04/28 04:09:53;;;;;;;15.48;9.55;;;;;;;;;;5020070;28;20032;-74
2022/04/28 04:12:19;;;;;;;16.50;9.80;;;;;;;;;;5020502;28;20423;-74
2022/04/28 04:14:44;;;;;;;12.55;9.73;;;;;;;;;;5021117;28;20381;-74
2022/04/28 04:17:09;;;;;;;15.68;10.50;;;;;;;;;;5025177;28;20057;-73
2022/04/28 04:19:36;;;;;;;15.30;10.90;;;;;;;;;;5021693;28;20109;-73
2022/04/28 04:22:01;;;;;;;16.45;10.57;;;;;;;;;;5006591;28;20067;-75
2022/04/28 04:24:27;;;;;;;15.55;10.20;;;;;;;;;;5026849;28;20069;-74
2022/04/28 04:26:53;;;;;;;17.63;10.52;;;;;;;;;;5023340;28;20107;-74
2022/04/28 04:29:18;;;;;;;16.20;11.35;;;;;;;;;;5020225;28;20095;-74
2022/04/28 04:34:27;;;;;;;15.38;10.40;;;;;;;;;;5026032;28;20048;-74
2022/04/28 04:36:52;;;;;;;18.17;10.80;;;;;;;;;;5021660;28;20404;-75
2022/04/28 04:39:17;;;;;;;14.23;9.82;;;;;;;;;;5024378;28;20036;-74
2022/04/28 04:41:42;;;;;;;21.05;11.43;;;;;;;;;;5019742;28;20033;-73
2022/04/28 04:44:13;;;;;;;17.20;10.55;;;;;;;;;;5020905;28;20056;-74
2022/04/28 04:46:39;;;;;;;18.80;11.18;;;;;;;;;;5005149;28;20021;-74
2022/04/28 04:49:04;;;;;;;14.30;10.15;;;;;;;;;;5022069;28;20056;-73
2022/04/28 04:51:48;;;;;;;21.10;11.27;;;;;;;;;;5021418;28;20041;-73
2022/04/28 04:54:13;;;;;;;16.13;11.48;;;;;;;;;;5023389;28;20447;-74
2022/04/28 04:56:39;;;;;;;20.42;11.35;;;;;;;;;;5018822;28;20021;-73
2022/04/28 04:59:04;;;;;;;18.23;11.40;;;;;;;;;;5002179;28;20033;-73
2022/04/28 05:01:30;;;;;;;16.20;11.85;;;;;;;;;;5023063;28;20032;-74
2022/04/28 05:03:55;;;;;;;17.40;11.30;;;;;;;;;;5018636;28;20695;-73
2022/04/28 05:06:20;;;;;;;18.73;11.60;;;;;;;;;;5004916;28;20029;-74
2022/04/28 05:08:46;;;;;;;15.63;11.32;;;;;;;;;;5024470;28;20013;-73
2022/04/28 05:11:11;;;;;;;16.52;11.48;;;;;;;;;;5026033;28;20296;-73
2022/04/28 05:13:37;;;;;;;16.98;10.82;;;;;;;;;;5027130;28;20048;-74
2022/04/28 05:16:03;;;;;;;19.10;11.85;;;;;;;;;;5022277;28;20120;-73
2022/04/28 05:18:28;;;;;;;18.05;11.38;;;;;;;;;;5004982;28;20535;-74
2022/04/28 05:20:53;;;;;;;16.08;11.80;;;;;;;;;;5018546;28;20434;-73
2022/04/28 05:23:20;;;;;;;20.80;12.63;;;;;;;;;;5022319;28;20179;-75
2022/04/28 05:25:46;;;;;;;19.15;12.77;;;;;;;;;;4999734;28;20025;-74
2022/04/28 05:28:11;;;;;;;20.92;12.27;;;;;;;;;;5022957;28;20614;-73
2022/04/28 05:30:37;;;;;;;17.48;12.65;;;;;;;;;;5019979;28;20036;-74
2022/04/28 05:33:03;;;;;;;18.00;12.27;;;;;;;;;;5020425;28;20065;-74
2022/04/28 05:35:28;;;;;;;20.92;14.32;;;;;;;;;;5020514;28;20064;-73
2022/04/28 05:37:54;;;;;;;19.48;12.57;;;;;;;;;;5005319;28;20230;-73
2022/04/28 05:40:19;;;;;;;19.23;12.73;;;;;;;;;;5020073;28;20487;-76
2022/04/28 05:45:41;;;;;;;21.02;13.05;;;;;;;;;;5019413;28;20360;-73
2022/04/28 05:48:07;;;;;;;18.45;12.82;;;;;;;;;;5023470;28;20229;-74
2022/04/28 05:50:33;;;;;;;17.05;12.05;;;;;;;;;;5019636;28;20362;-73
2022/04/28 05:52:58;;;;;;;19.42;13.52;;;;;;;;;;5018567;28;20124;-74
2022/04/28 05:55:24;;;;;;;20.95;13.23;;;;;;;;;;5022654;28;20104;-73
2022/04/28 05:57:49;;;;;;;19.40;12.32;;;;;;;;;;5024991;28;20431;-73
2022/04/28 06:00:14;;;;;;;19.92;12.68;;;;;;;;;;5023445;28;20072;-73
2022/04/28 06:02:41;;;;;;;19.70;11.07;;;;;;;;;;5024714;28;20033;-73
2022/04/28 06:05:07;;;;;;;18.10;11.63;;;;;;;;;;5023319;28;20053;-74
2022/04/28 06:07:32;;;;;;;19.02;11.68;;;;;;;;;;5008115;28;20072;-74
2022/04/28 06:09:59;;;;;;;21.60;12.00;;;;;;;;;;5025170;28;20029;-75
2022/04/28 06:12:25;;;;;;;17.08;10.10;;;;;;;;;;5024548;28;20530;-74
2022/04/28 06:14:50;;;;;;;18.35;11.07;;;;;;;;;;5023687;28;20317;-72
2022/04/28 06:17:16;;;;;;;20.33;10.25;;;;;;;;;;5027310;28;20057;-73
2022/04/28 06:19:43;;;;;;;18.42;9.60;;;;;;;;;;5023622;28;20392;-74
2022/04/28 06:22:08;;;;;;;17.67;10.30;;;;;;;;;;5027635;28;20021;-73
2022/04/28 06:24:33;;;;;;;16.70;9.90;;;;;;;;;;5024599;28;20033;-72
2022/04/28 06:26:58;;;;;;;14.20;9.88;;;;;;;;;;5021279;28;20546;-73
2022/04/28 06:29:24;;;;;;;17.92;9.90;;;;;;;;;;5023689;28;20039;-73
2022/04/28 06:31:49;;;;;;;14.98;9.48;;;;;;;;;;5022314;28;20036;-74
2022/04/28 06:34:14;;;;;;;13.48;8.95;;;;;;;;;;5025603;28;20389;-74
2022/04/28 06:36:42;;;;;;;16.25;10.07;;;;;;;;;;5026465;28;20488;-73
2022/04/28 06:39:08;;;;;;;15.30;9.20;;;;;;;;;;5025643;28;20095;-73
2022/04/28 06:41:33;;;;;;;17.70;9.10;;;;;;;;;;5023998;28;20112;-73
2022/04/28 06:43:58;;;;;;;14.13;9.57;;;;;;;;;;5023656;28;20457;-73
2022/04/28 06:46:23;;;;;;;16.40;9.35;;;;;;;;;;5026255;28;20029;-74
2022/04/28 06:48:49;;;;;;;11.52;8.57;;;;;;;;;;5009383;28;20412;-75
2022/04/28 06:51:14;;;;;;;15.18;8.65;;;;;;;;;;5024870;28;20056;-74
2022/04/28 06:53:40;;;;;;;12.93;7.78;;;;;;;;;;5028004;28;20029;-74
2022/04/28 06:56:06;;;;;;;16.02;8.00;;;;;;;;;;5006647;28;20029;-74
2022/04/28 06:58:32;;;;;;;12.40;7.78;;;;;;;;;;5026679;28;20029;-73
2022/04/28 07:00:57;;;;;;;15.38;8.05;;;;;;;;;;5024352;28;20412;-74
2022/04/28 07:03:23;;;;;;;14.10;9.43;;;;;;;;;;5027216;28;20055;-74
2022/04/28 07:05:48;;;;;;;17.23;8.43;;;;;;;;;;5022904;28;20104;-74
2022/04/28 07:08:13;;;;;;;16.17;8.43;;;;;;;;;;5009384;28;20025;-74
2022/04/28 07:10:40;;;;;;;13.68;7.95;;;;;;;;;;5024451;28;20032;-74
2022/04/28 07:13:05;;;;;;;11.52;7.15;;;;;;;;;;5025010;28;20021;-74
2022/04/28 07:15:30;;;;;;;11.73;7.00;;;;;;;;;;5023211;28;20473;-75
2022/04/28 07:17:56;;;;;;;13.60;7.63;;;;;;;;;;5025028;28;20041;-76
2022/04/28 07:20:21;;;;;;;15.00;7.30;;;;;;;;;;5023004;28;20531;-74
2022/04/28 07:22:46;;;;;;;11.43;7.30;;;;;;;;;;5027976;28;20056;-75
2022/04/28 07:25:14;;;;;;;10.77;7.72;;;;;;;;;;5029255;28;20313;-76
2022/04/28 07:27:39;;;;;;;10.73;7.30;;;;;;;;;;5030448;28;20045;-73
2022/04/28 07:30:04;;;;;;;14.10;7.95;;;;;;;;;;5023452;28;20067;-73
2022/04/28 07:32:32;;;;;;;12.27;7.63;;;;;;;;;;5026760;28;20065;-74
2022/04/28 07:34:57;;;;;;;10.73;7.25;;;;;;;;;;5021926;28;20329;-73
2022/04/28 07:37:22;;;;;;;14.13;8.40;;;;;;;;;;5024133;28;20033;-73
2022/04/28 07:39:48;;;;;;;12.98;8.38;;;;;;;;;;5025455;28;20331;-73
2022/04/28 07:42:13;;;;;;;14.80;7.82;;;;;;;;;;5006311;28;20064;-73
2022/04/28 07:44:38;;;;;;;13.40;7.65;;;;;;;;;;5023200;28;20053;-73
2022/04/28 07:47:04;;;;;;;11.75;7.95;;;;;;;;;;5023338;28;20214;-73
2022/04/28 07:49:29;;;;;;;14.00;8.07;;;;;;;;;;5007218;28;20117;-74
2022/04/28 07:51:54;;;;;;;12.88;8.13;;;;;;;;;;5021178;28;20098;-73
2022/04/28 07:54:20;;;;;;;16.60;7.95;;;;;;;;;;5025730;28;20488;-72
2022/04/28 07:56:45;;;;;;;12.15;7.40;;;;;;;;;;5004781;28;20431;-74
2022/04/28 07:59:11;;;;;;;13.05;8.15;;;;;;;;;;5023290;28;20065;-74
2022/04/28 08:01:37;;;;;;;10.63;7.45;;;;;;;;;;5025475;28;20064;-73
2022/04/28 08:04:02;;;;;;;13.43;7.10;;;;;;;;;;5022752;28;20112;-74
2022/04/28 08:06:27;;;;;;;17.65;7.93;;;;;;;;;;5021156;28;20075;-74
2022/04/28 08:08:53;;;;;;;14.23;7.75;;;;;;;;;;5023604;28;20063;-74
2022/04/28 08:11:18;;;;;;;10.38;6.70;;;;;;;;;;5020530;28;20108;-73
2022/04/28 08:13:44;;;;;;;13.50;7.40;;;;;;;;;;5022590;28;20105;-74
2022/04/28 08:16:10;;;;;;;15.45;6.70;;;;;;;;;;5005014;28;20382;-73
2022/04/28 08:18:37;;;;;;;9.80;6.65;;;;;;;;;;5022579;28;20257;-75
2022/04/28 08:21:03;;;;;;;13.30;6.63;;;;;;;;;;5020356;28;20387;-74
2022/04/28 08:23:28;;;;;;;11.10;6.20;;;;;;;;;;5023746;28;20088;-74
2022/04/28 08:25:54;;;;;;;12.00;6.28;;;;;;;;;;5021823;28;20022;-74
2022/04/28 08:28:19;;;;;;;11.00;5.75;;;;;;;;;;5024840;28;20456;-74
2022/04/28 08:30:45;;;;;;;13.20;6.05;;;;;;;;;;5022085;28;20022;-75
2022/04/28 08:33:10;;;;;;;12.40;6.57;;;;;;;;;;5005006;28;20071;-74
2022/04/28 08:35:35;;;;;;;9.20;6.05;;;;;;;;;;5020894;28;20393;-74
2022/04/28 08:38:00;;;;;;;11.40;6.50;;;;;;;;;;5025066;28;20031;-73
2022/04/28 08:40:26;;;;;;;10.90;5.95;;;;;;;;;;5008492;28;20107;-73
2022/04/28 08:42:52;;;;;;;9.95;5.75;;;;;;;;;;5027417;28;20025;-73
2022/04/28 08:45:21;;;;;;;13.02;6.35;;;;;;;;;;5021241;28;20032;-73
2022/04/28 08:47:47;;;;;;;12.27;6.25;;;;;;;;;;5026496;28;20056;-72
2022/04/28 08:50:13;;;;;;;10.57;5.45;;;;;;;;;;5003565;28;20481;-73
2022/04/28 08:52:39;;;;;;;11.18;6.10;;;;;;;;;;5025143;28;20472;-75
2022/04/28 08:55:04;;;;;;;10.60;6.00;;;;;;;;;;5023191;28;20116;-75
2022/04/28 08:57:33;;;;;;;12.75;6.68;;;;;;;;;;5022764;28;20105;-74
2022/04/28 08:59:58;;;;;;;11.75;7.15;;;;;;;;;;5022656;28;20021;-74
2022/04/28 09:02:26;;;;;;;13.70;6.95;;;;;;;;;;5023440;28;20040;-74
2022/04/28 09:04:58;;;;;;;13.68;7.82;;;;;;;;;;5023353;28;20321;-75
2022/04/28 09:07:32;;;;;;;10.55;7.22;;;;;;;;;;5025215;28;20534;-75
2022/04/28 09:09:57;;;;;;;12.18;8.73;;;;;;;;;;5020504;28;20025;-73
2022/04/28 09:12:23;;;;;;;13.05;7.65;;;;;;;;;;5004134;28;20047;-73
2022/04/28 09:14:48;;;;;;;11.98;8.18;;;;;;;;;;5021828;28;20116;-74
2022/04/28 09:17:13;;;;;;;10.63;7.40;;;;;;;;;;5022407;28;20633;-74
2022/04/28 09:19:40;;;;;;;14.30;7.97;;;;;;;;;;5022394;28;20460;-74
2022/04/28 09:22:09;;;;;;;10.95;7.70;;;;;;;;;;5004380;28;20030;-75
2022/04/28 09:24:35;;;;;;;14.13;8.35;;;;;;;;;;5021520;28;20049;-74
2022/04/28 09:27:00;;;;;;;13.20;9.18;;;;;;;;;;5016554;28;20028;-72
2022/04/28 09:29:30;;;;;;;14.05;8.57;;;;;;;;;;5021020;28;20022;-74
2022/04/28 09:31:56;;;;;;;12.77;7.93;;;;;;;;;;5024393;28;20411;-75
2022/04/28 09:34:22;;;;;;;13.40;8.05;;;;;;;;;;5022930;28;20290;-75
2022/04/28 09:36:48;;;;;;;13.57;9.57;;;;;;;;;;5023200;28;20028;-75
2022/04/28 09:42:29;;;;;;;13.82;8.52;;;;;;;;;;5020305;28;20043;-74
2022/04/28 09:44:56;;;;;;;12.20;8.50;;;;;;;;;;5021422;28;20496;-76
2022/04/28 09:47:22;;;;;;;12.73;8.55;;;;;;;;;;5005799;28;20109;-74
2022/04/28 09:49:55;;;;;;;12.88;8.05;;;;;;;;;;5021858;28;20100;-73
2022/04/28 09:52:23;;;;;;;15.40;7.90;;;;;;;;;;5022279;28;20021;-74
2022/04/28 09:54:50;;;;;;;13.73;8.45;;;;;;;;;;5024428;28;20019;-75
2022/04/28 09:57:17;;;;;;;10.18;7.63;;;;;;;;;;5021809;28;20036;-74
2022/04/28 09:59:42;;;;;;;10.82;6.90;;;;;;;;;;5021692;28;20025;-75
2022/04/28 10:02:13;;;;;;;14.93;7.45;;;;;;;;;;5006054;28;20029;-74
2022/04/28 10:04:40;;;;;;;11.40;6.72;;;;;;;;;;5019488;28;20121;-74
2022/04/28 10:07:06;;;;;;;11.23;6.82;;;;;;;;;;5020300;28;20155;-74
2022/04/28 10:09:32;;;;;;;10.15;6.82;;;;;;;;;;5021826;28;20115;-74
2022/04/28 10:11:59;;;;;;;10.20;6.93;;;;;;;;;;5019099;28;20045;-74
2022/04/28 10:14:25;;;;;;;9.57;6.32;;;;;;;;;;5019907;28;20067;-73
2022/04/28 10:16:51;;;;;;;13.70;7.05;;;;;;;;;;5023062;28;20036;-74
2022/04/28 10:19:23;;;;;;;12.90;6.90;;;;;;;;;;5020926;28;20033;-75
2022/04/28 10:21:48;;;;;;;10.00;7.10;;;;;;;;;;5022056;28;20108;-73
2022/04/28 10:32:58;;;;;;;9.45;6.93;;;;;;;;;;5024023;28;20052;-75
2022/04/28 10:35:40;;;;;;;12.60;6.75;;;;;;;;;;5019595;28;20009;-75
2022/04/28 10:38:23;;;;;;;11.50;6.68;;;;;;;;;;5020578;28;20062;-72
2022/04/28 10:40:59;;;;;;;10.50;7.22;;;;;;;;;;5023865;28;20024;-74
2022/04/28 10:43:27;;;;;;;9.63;6.72;;;;;;;;;;5026392;28;20025;-74
2022/04/28 10:45:53;;;;;;;11.98;7.32;;;;;;;;;;5022159;28;20104;-74
2022/04/28 10:48:29;;;;;;;9.00;7.13;;;;;;;;;;5026081;28;20096;-75
2022/04/28 10:51:03;;;;;;;9.82;6.60;;;;;;;;;;5022250;28;20435;-74
2022/04/28 10:53:29;;;;;;;10.82;6.63;;;;;;;;;;5024369;28;20034;-75
2022/04/28 10:55:55;;;;;;;14.13;6.70;;;;;;;;;;5022199;28;20032;-75
2022/04/28 10:58:21;;;;;;;9.32;6.60;;;;;;;;;;5026008;28;20559;-76
2022/04/28 11:00:56;;;;;;;13.40;6.70;;;;;;;;;;5024452;28;20087;-74
2022/04/28 11:03:40;;;;;;;12.20;6.40;;;;;;;;;;5024170;28;20419;-74
2022/04/28 11:06:13;;;;;;;11.38;7.05;;;;;;;;;;5023488;28;20017;-74
2022/04/28 11:08:43;;;;;;;10.30;7.03;;;;;;;;;;5025380;28;20024;-75
2022/04/28 11:11:12;;;;;;;8.77;6.07;;;;;;;;;;5021419;28;20131;-75
2022/04/28 11:13:49;;;;;;;13.23;6.72;;;;;;;;;;5025440;28;20022;-74
2022/04/28 11:16:14;;;;;;;8.77;6.60;;;;;;;;;;5024076;28;20808;-75
2022/04/28 11:18:40;;;;;;;10.52;5.85;;;;;;;;;;5027477;28;20492;-75
2022/04/28 11:21:06;;;;;;;8.32;5.90;;;;;;;;;;5024205;28;20033;-74
2022/04/28 11:23:33;;;;;;;11.27;6.53;;;;;;;;;;5025524;28;20437;-74
2022/04/28 11:25:58;;;;;;;9.50;6.15;;;;;;;;;;5025889;28;20055;-75
2022/04/28 11:28:23;;;;;;;12.85;7.00;;;;;;;;;;5027233;28;20276;-73
2022/04/28 11:30:49;;;;;;;9.55;6.38;;;;;;;;;;5024645;28;20215;-75
2022/04/28 11:33:14;;;;;;;11.20;7.10;;;;;;;;;;5027149;28;20132;-73
2022/04/28 11:35:40;;;;;;;11.90;5.93;;;;;;;;;;5025781;28;20456;-74
2022/04/28 11:38:07;;;;;;;10.77;6.15;;;;;;;;;;5026171;28;20018;-74
2022/04/28 11:40:34;;;;;;;10.50;6.15;;;;;;;;;;5024228;28;20558;-75
2022/04/28 11:43:00;;;;;;;11.05;6.22;;;;;;;;;;5027447;28;20049;-74
2022/04/28 11:45:26;;;;;;;10.18;6.28;;;;;;;;;;5023540;28;20018;-74
2022/04/28 11:47:53;;;;;;;10.63;5.95;;;;;;;;;;5027887;28;20025;-73
2022/04/28 11:50:30;;;;;;;11.00;5.70;;;;;;;;;;5021403;28;20272;-73
2022/04/28 11:52:58;;;;;;;8.43;5.97;;;;;;;;;;5025621;28;20021;-74
2022/04/28 11:55:24;;;;;;;7.72;5.55;;;;;;;;;;5021852;28;20460;-73
2022/04/28 11:57:50;;;;;;;9.15;6.10;;;;;;;;;;5027574;28;20017;-74
2022/04/28 12:00:16;;;;;;;10.73;6.68;;;;;;;;;;5007663;28;20022;-73
2022/04/28 12:02:43;;;;;;;9.13;6.45;;;;;;;;;;5027735;28;20032;-75
2022/04/28 12:05:19;;;;;;;10.98;6.32;;;;;;;;;;5025268;28;20041;-73
2022/04/28 12:07:51;;;;;;;9.68;6.32;;;;;;;;;;5027159;28;20554;-75
2022/04/28 12:15:55;;;;;;;9.38;5.70;;;;;;;;;;5025856;28;20056;-74
2022/04/28 12:21:36;;;;;;;8.55;5.55;;;;;;;;;;5040819;28;20499;-73
2022/04/28 12:24:10;;;;;;;10.40;5.80;;;;;;;;;;5045835;28;20036;-74
2022/04/28 12:26:39;;;;;;;8.38;5.35;;;;;;;;;;5023645;28;20087;-72
2022/04/28 12:29:12;;;;;;;8.27;5.82;;;;;;;;;;5025987;28;20488;-73
2022/04/28 12:31:38;;;;;;;10.70;6.03;;;;;;;;;;5030504;28;20407;-72
2022/04/28 12:34:14;;;;;;;7.72;6.00;;;;;;;;;;5029061;28;20437;-72
2022/04/28 12:36:44;;;;;;;9.38;6.05;;;;;;;;;;5026466;28;20041;-74
2022/04/28 12:39:10;;;;;;;10.18;6.10;;;;;;;;;;5030562;28;20401;-72
2022/04/28 12:41:43;;;;;;;10.88;5.72;;;;;;;;;;5011038;28;20021;-73
2022/04/28 12:44:08;;;;;;;7.75;5.97;;;;;;;;;;5028494;28;20025;-73
2022/04/28 12:46:35;;;;;;;10.65;5.97;;;;;;;;;;5030706;28;20032;-73
2022/04/28 12:49:02;;;;;;;7.20;6.07;;;;;;;;;;5027106;28;20026;-72
2022/04/28 12:51:28;;;;;;;8.65;5.90;;;;;;;;;;5023454;28;20040;-71
2022/04/28 12:53:55;;;;;;;9.95;6.00;;;;;;;;;;5029419;28;20227;-75
2022/04/28 12:56:30;;;;;;;8.70;6.43;;;;;;;;;;5026302;28;20053;-74
2022/04/28 12:58:57;;;;;;;8.57;5.97;;;;;;;;;;5026167;28;20045;-75
2022/04/28 13:01:23;;;;;;;8.27;5.82;;;;;;;;;;5027170;28;20120;-74
2022/04/28 13:03:55;;;;;;;9.13;5.75;;;;;;;;;;5027505;28;20421;-72
2022/04/28 13:06:25;;;;;;;12.95;5.75;;;;;;;;;;5024045;28;20075;-73
2022/04/28 13:08:54;;;;;;;10.68;5.85;;;;;;;;;;5027830;28;20021;-73
2022/04/28 13:11:39;;;;;;;6.32;5.40;;;;;;;;;;5021981;28;20057;-73
2022/04/28 13:14:05;;;;;;;9.52;5.80;;;;;;;;;;5023111;28;20238;-72
2022/04/28 13:16:31;;;;;;;9.15;5.75;;;;;;;;;;5023610;28;20021;-73
2022/04/28 13:18:57;;;;;;;10.50;5.47;;;;;;;;;;5027762;28;20207;-75
2022/04/28 13:21:22;;;;;;;7.22;5.32;;;;;;;;;;5021592;28;20039;-73
2022/04/28 13:23:51;;;;;;;7.85;5.82;;;;;;;;;;5026570;28;20033;-74
2022/04/28 13:26:18;;;;;;;12.15;6.32;;;;;;;;;;5022441;28;20113;-73
2022/04/28 13:28:44;;;;;;;11.18;6.25;;;;;;;;;;5006145;28;20024;-72
2022/04/28 13:31:11;;;;;;;11.65;6.97;;;;;;;;;;5007991;28;20052;-73
2022/04/28 13:33:37;;;;;;;7.40;6.22;;;;;;;;;;5025508;28;20036;-74
2022/04/28 13:36:03;;;;;;;9.25;5.85;;;;;;;;;;5024431;28;20025;-73
2022/04/28 13:38:28;;;;;;;8.40;5.85;;;;;;;;;;5026963;28;20045;-74
2022/04/28 13:40:53;;;;;;;9.63;6.30;;;;;;;;;;5024953;28;20060;-72
2022/04/28 13:43:19;;;;;;;7.72;5.55;;;;;;;;;;5025696;28;20032;-72
2022/04/28 13:45:44;;;;;;;10.05;5.78;;;;;;;;;;5023806;28;20088;-73
2022/04/28 13:48:10;;;;;;;11.20;5.85;;;;;;;;;;5024711;28;20040;-74
2022/04/28 13:50:38;;;;;;;8.77;6.30;;;;;;;;;;5023541;28;20861;-75
2022/04/28 13:53:05;;;;;;;9.18;6.07;;;;;;;;;;5023248;28;20071;-74
2022/04/28 13:55:30;;;;;;;8.43;6.57;;;;;;;;;;5020100;28;20496;-76
2022/04/28 13:57:55;;;;;;;9.52;5.75;;;;;;;;;;5008092;28;20470;-75
2022/04/28 14:00:24;;;;;;;9.98;6.03;;;;;;;;;;5019044;28;20467;-74
2022/04/28 14:02:49;;;;;;;7.55;5.53;;;;;;;;;;5025486;28;20017;-74
2022/04/28 14:05:15;;;;;;;7.95;5.65;;;;;;;;;;5023290;28;20446;-74
2022/04/28 14:07:40;;;;;;;9.15;5.32;;;;;;;;;;5023272;28;20044;-75
2022/04/28 14:10:12;;;;;;;9.48;6.22;;;;;;;;;;5022619;28;20047;-75
2022/04/28 14:12:38;;;;;;;12.02;5.97;;;;;;;;;;5022635;28;20377;-73
2022/04/28 14:15:05;;;;;;;8.32;5.28;;;;;;;;;;5017752;28;20434;-73
2022/04/28 14:17:32;;;;;;;10.45;5.95;;;;;;;;;;5026525;28;20037;-77
2022/04/28 14:19:59;;;;;;;8.00;5.53;;;;;;;;;;5027270;28;20025;-76
2022/04/28 14:22:25;;;;;;;8.80;5.35;;;;;;;;;;5026227;28;20056;-73
2022/04/28 14:24:50;;;;;;;9.50;4.93;;;;;;;;;;5027545;28;20114;-75
2022/04/28 14:27:16;;;;;;;9.80;5.65;;;;;;;;;;5025723;28;20095;-73
2022/04/28 14:29:41;;;;;;;8.10;5.30;;;;;;;;;;5025882;28;20037;-73
2022/04/28 14:32:07;;;;;;;8.35;5.00;;;;;;;;;;5027697;28;20396;-74
2022/04/28 14:34:32;;;;;;;10.05;5.63;;;;;;;;;;5028333;28;20487;-74
2022/04/28 14:36:58;;;;;;;12.63;5.18;;;;;;;;;;5029580;28;20395;-75
2022/04/28 14:39:26;;;;;;;11.50;5.25;;;;;;;;;;5026271;28;20025;-74
2022/04/28 14:41:51;;;;;;;9.98;5.80;;;;;;;;;;5027249;28;20356;-73
2022/04/28 14:44:17;;;;;;;9.73;5.90;;;;;;;;;;5028672;28;20032;-74
2022/04/28 14:46:42;;;;;;;10.45;6.00;;;;;;;;;;5027905;28;20029;-74
2022/04/28 14:54:35;;;;;;;9.15;4.93;;;;;;;;;;5024603;28;20052;-74
2022/04/28 14:57:01;;;;;;;7.72;5.80;;;;;;;;;;5024608;28;20680;-74
2022/04/28 14:59:26;;;;;;;11.32;5.50;;;;;;;;;;5022907;28;20060;-75
2022/04/28 15:01:52;;;;;;;12.98;5.80;;;;;;;;;;5025434;28;20456;-76
2022/04/28 15:04:17;;;;;;;12.60;5.22;;;;;;;;;;5026722;28;20024;-74
2022/04/28 15:06:42;;;;;;;8.85;5.40;;;;;;;;;;5022109;28;20367;-74
2022/04/28 15:09:08;;;;;;;8.80;5.43;;;;;;;;;;5027287;28;20108;-75